createdAt,value
2019-02-09T00:02:44.041Z,6.28
2019-02-09T00:07:52.270Z,4.09
2019-02-09T00:13:00.500Z,6.69
2019-02-09T00:18:08.777Z,5.34
2019-02-09T00:23:16.957Z,6.20
2019-02-09T00:28:25.081Z,5.26
2019-02-09T00:33:33.282Z,6.41
2019-02-09T00:38:41.728Z,5.03
2019-02-09T00:43:49.857Z,6.95
2019-02-09T00:48:58.205Z,5.61
2019-02-09T00:54:06.321Z,7.66
2019-02-09T00:59:14.537Z,6.62
2019-02-09T01:04:22.941Z,6.85
2019-02-09T01:09:31.181Z,6.89
2019-02-09T01:14:39.317Z,4.27
2019-02-09T01:19:47.538Z,7.36
2019-02-09T01:24:55.637Z,5.78
2019-02-09T01:30:03.919Z,5.15
2019-02-09T01:35:11.889Z,5.72
2019-02-09T01:40:20.261Z,5.42
2019-02-09T01:45:28.343Z,8.04
2019-02-09T01:50:36.733Z,6.70
2019-02-09T01:55:45.008Z,7.39
2019-02-09T02:00:53.245Z,7.10
2019-02-09T02:06:01.384Z,5.80
2019-02-09T02:11:09.617Z,6.18
2019-02-09T02:16:17.705Z,6.36
2019-02-09T02:21:25.962Z,5.29
2019-02-09T02:26:34.085Z,4.91
2019-02-09T02:31:42.333Z,6.53
2019-02-09T02:36:50.437Z,5.33
2019-02-09T02:41:58.658Z,5.95
2019-02-09T02:47:06.751Z,6.52
2019-02-09T02:52:15.041Z,5.68
2019-02-09T02:57:23.242Z,6.23
2019-02-09T03:02:31.497Z,6.70
2019-02-09T03:07:39.566Z,7.95
2019-02-09T03:12:47.876Z,5.76
2019-02-09T03:17:55.969Z,6.74
2019-02-09T03:23:04.104Z,5.95
2019-02-09T03:28:12.184Z,4.73
2019-02-09T03:33:20.440Z,4.11
2019-02-09T03:38:28.510Z,5.19
2019-02-09T03:43:36.892Z,5.97
2019-02-09T03:48:44.896Z,6.09
2019-02-09T03:53:53.147Z,7.12
2019-02-09T03:59:01.214Z,5.96
2019-02-09T04:04:09.489Z,4.25
2019-02-09T04:09:17.579Z,5.23
2019-02-09T04:14:25.909Z,5.79
2019-02-09T04:19:33.981Z,5.10
2019-02-09T04:24:42.085Z,4.92
2019-02-09T04:29:50.197Z,5.35
2019-02-09T04:34:58.505Z,3.97
2019-02-09T04:40:06.593Z,4.59
2019-02-09T04:45:15.277Z,6.72
2019-02-09T04:50:23.205Z,5.66
2019-02-09T04:55:31.430Z,5.28
2019-02-09T05:00:39.555Z,5.68
2019-02-09T05:05:47.901Z,5.54
2019-02-09T05:10:55.973Z,6.75
2019-02-09T05:16:04.089Z,6.32
2019-02-09T05:21:12.255Z,6.54
2019-02-09T05:26:20.336Z,5.16
2019-02-09T05:31:28.484Z,3.70
2019-02-09T05:36:36.673Z,5.38
2019-02-09T05:41:44.674Z,6.19
2019-02-09T05:46:52.906Z,5.25
2019-02-09T05:52:01.008Z,5.47
2019-02-09T05:57:09.210Z,7.60
2019-02-09T06:02:17.228Z,7.52
2019-02-09T06:07:25.542Z,9.88
2019-02-09T06:12:33.592Z,6.87
2019-02-09T06:17:41.721Z,5.87
2019-02-09T06:22:49.885Z,5.75
2019-02-09T06:27:57.973Z,6.49
2019-02-09T06:33:06.169Z,4.50
2019-02-09T06:38:14.401Z,6.43
2019-02-09T06:43:22.395Z,5.06
2019-02-09T06:48:30.588Z,5.34
2019-02-09T06:53:38.713Z,5.28
2019-02-09T06:58:46.713Z,7.92
2019-02-09T07:03:54.737Z,7.47
2019-02-09T07:09:02.793Z,9.24
2019-02-09T07:14:12.284Z,11.98
2019-02-09T07:19:18.317Z,11.96
2019-02-09T07:24:26.548Z,10.33
2019-02-09T07:29:34.796Z,11.37
2019-02-09T07:34:43.024Z,10.87
2019-02-09T07:39:51.480Z,6.74
2019-02-09T07:44:59.533Z,8.85
2019-02-09T07:50:07.994Z,8.19
2019-02-09T07:55:17.294Z,6.95
2019-02-09T08:00:25.579Z,5.01
2019-02-09T08:05:33.709Z,6.77
2019-02-09T08:10:41.878Z,7.41
2019-02-09T08:15:50.044Z,9.02
2019-02-09T08:20:58.198Z,7.61
2019-02-09T08:26:06.496Z,3.61
2019-02-09T08:31:15.053Z,6.06
2019-02-09T08:36:23.329Z,5.73
2019-02-09T08:41:31.361Z,8.81
2019-02-09T08:46:39.711Z,6.04
2019-02-09T08:51:47.856Z,6.96
2019-02-09T08:56:56.073Z,6.60
2019-02-09T09:02:04.150Z,9.74
2019-02-09T09:07:12.619Z,8.09
2019-02-09T09:12:20.588Z,9.42
2019-02-09T09:17:28.577Z,8.85
2019-02-09T09:22:36.694Z,8.42
2019-02-09T09:27:44.841Z,8.09
2019-02-09T09:32:53.036Z,9.32
2019-02-09T09:38:01.149Z,9.44
2019-02-09T09:43:09.694Z,9.39
2019-02-09T09:48:17.937Z,6.90
2019-02-09T09:53:26.197Z,9.53
2019-02-09T09:58:34.572Z,9.33
2019-02-09T10:03:42.792Z,8.35
2019-02-09T10:08:51.020Z,9.70
2019-02-09T10:13:59.375Z,9.48
2019-02-09T10:19:07.365Z,8.47
2019-02-09T10:24:15.389Z,9.56
2019-02-09T10:29:23.367Z,12.94
2019-02-09T10:34:31.358Z,10.73
2019-02-09T10:39:39.470Z,10.97
2019-02-09T10:44:47.601Z,10.70
2019-02-09T10:49:55.593Z,10.49
2019-02-09T10:55:04.007Z,9.46
2019-02-09T11:00:12.329Z,9.49
2019-02-09T11:05:20.647Z,12.12
2019-02-09T11:10:28.651Z,13.87
2019-02-09T11:15:36.897Z,9.86
2019-02-09T11:20:45.107Z,12.23
2019-02-09T11:25:53.548Z,10.47
2019-02-09T11:31:01.549Z,13.28
2019-02-09T11:36:09.728Z,13.36
2019-02-09T11:41:17.963Z,14.09
2019-02-09T11:46:26.156Z,15.30
2019-02-09T11:51:34.320Z,13.09
2019-02-09T11:56:42.409Z,15.45
2019-02-09T12:01:51.928Z,14.58
2019-02-09T12:06:57.838Z,14.08
2019-02-09T12:12:06.575Z,13.49
2019-02-09T12:17:14.881Z,12.05
2019-02-09T12:22:22.922Z,17.05
2019-02-09T12:27:31.179Z,18.25
2019-02-09T12:32:39.261Z,14.44
2019-02-09T12:37:47.243Z,12.32
2019-02-09T12:42:55.534Z,11.51
2019-02-09T12:48:03.868Z,14.97
2019-02-09T12:53:11.968Z,10.14
2019-02-09T12:58:19.994Z,10.84
2019-02-09T13:03:31.276Z,13.41
2019-02-09T13:08:35.421Z,12.53
2019-02-09T13:13:43.432Z,11.63
2019-02-09T13:18:51.610Z,11.92
2019-02-09T13:23:59.672Z,10.33
2019-02-09T13:29:07.642Z,12.29
2019-02-09T13:34:15.642Z,12.28
2019-02-09T13:39:23.630Z,17.60
2019-02-09T13:44:31.794Z,12.08
2019-02-09T13:49:39.924Z,14.47
2019-02-09T13:54:47.933Z,20.56
2019-02-09T13:59:55.967Z,14.94
2019-02-09T14:05:04.086Z,14.38
2019-02-09T14:10:12.453Z,15.78
2019-02-09T14:15:20.668Z,9.90
2019-02-09T14:20:29.673Z,11.78
2019-02-09T14:25:38.052Z,8.97
2019-02-09T14:30:46.357Z,9.36
2019-02-09T14:35:54.522Z,8.25
2019-02-09T14:41:02.726Z,9.33
2019-02-09T14:46:10.784Z,10.23
2019-02-09T14:51:19.274Z,11.37
2019-02-09T14:56:27.401Z,9.94
2019-02-09T15:01:37.005Z,6.52
2019-02-09T15:06:45.417Z,11.50
2019-02-09T15:11:53.689Z,11.53
2019-02-09T15:17:05.538Z,12.33
2019-02-09T15:22:09.200Z,13.48
2019-02-09T15:27:17.265Z,11.76
2019-02-09T15:32:25.297Z,15.26
2019-02-09T15:37:33.665Z,11.02
2019-02-09T15:42:42.105Z,13.62
2019-02-09T15:47:50.154Z,15.20
2019-02-09T15:52:58.640Z,14.99
2019-02-09T15:58:06.786Z,10.75
2019-02-09T16:03:14.975Z,14.81
2019-02-09T16:08:23.004Z,12.49
2019-02-09T16:13:35.816Z,10.55
2019-02-09T16:18:34.238Z,15.47
2019-02-09T16:23:42.313Z,13.88
2019-02-09T16:28:50.486Z,11.91
2019-02-09T16:33:58.690Z,13.96
2019-02-09T16:39:06.837Z,13.17
2019-02-09T16:44:15.214Z,15.94
2019-02-09T16:49:24.095Z,10.32
2019-02-09T16:54:31.142Z,10.80
2019-02-09T16:59:40.544Z,10.69
2019-02-09T17:04:50.352Z,16.62
2019-02-09T17:09:49.286Z,12.33
2019-02-09T17:14:57.154Z,12.29
2019-02-09T17:20:05.425Z,14.66
2019-02-09T17:25:13.537Z,15.77
2019-02-09T17:30:21.808Z,15.70
2019-02-09T17:35:27.382Z,14.15
2019-02-09T17:40:35.557Z,15.37
2019-02-09T17:45:44.651Z,16.30
2019-02-09T17:50:53.193Z,14.80
2019-02-09T17:56:01.649Z,15.53
2019-02-09T18:01:10.034Z,19.75
2019-02-09T18:06:18.467Z,16.03
2019-02-09T18:11:26.796Z,14.31
2019-02-09T18:16:35.057Z,15.79
2019-02-09T18:21:43.181Z,17.13
2019-02-09T18:26:51.754Z,13.90
2019-02-09T18:32:00.274Z,17.49
2019-02-09T18:37:08.600Z,15.99
2019-02-09T18:42:16.953Z,18.85
2019-02-09T18:47:25.397Z,17.17
2019-02-09T18:52:33.801Z,17.17
2019-02-09T18:57:42.009Z,14.89
2019-02-09T19:02:50.245Z,18.02
2019-02-09T19:07:56.981Z,19.67
2019-02-09T19:13:05.027Z,15.53
2019-02-09T19:18:13.254Z,16.97
2019-02-09T19:23:21.390Z,19.69
2019-02-09T19:28:29.585Z,16.93
2019-02-09T19:33:37.758Z,22.10
2019-02-09T19:38:46.118Z,23.52
2019-02-09T19:43:54.593Z,21.70
2019-02-09T19:49:02.887Z,18.10
2019-02-09T19:54:11.193Z,15.47
2019-02-09T19:59:19.298Z,22.90
2019-02-09T20:04:27.361Z,17.08
2019-02-09T20:09:35.626Z,17.95
2019-02-09T20:14:43.805Z,15.06
2019-02-09T20:19:52.158Z,19.58
2019-02-09T20:25:00.353Z,15.29
2019-02-09T20:30:08.674Z,16.93
2019-02-09T20:35:16.833Z,19.09
2019-02-09T20:40:25.283Z,15.15
2019-02-09T20:45:33.575Z,15.15
2019-02-09T20:50:41.762Z,17.86
2019-02-09T20:55:50.122Z,19.38
2019-02-09T21:00:58.499Z,14.49
2019-02-09T21:06:06.934Z,15.48
2019-02-09T21:11:15.244Z,16.31
2019-02-09T21:16:23.469Z,17.01
2019-02-09T21:21:31.710Z,15.08
2019-02-09T21:26:39.823Z,16.19
2019-02-09T21:31:48.110Z,17.19
2019-02-09T21:36:56.456Z,16.41
2019-02-09T21:42:04.805Z,14.70
2019-02-09T21:47:13.052Z,17.86
2019-02-09T21:52:21.287Z,14.57
2019-02-09T21:57:29.448Z,14.76
2019-02-09T22:02:42.303Z,14.93
2019-02-09T22:07:45.265Z,17.61
2019-02-09T22:12:54.162Z,16.34
2019-02-09T22:18:02.197Z,16.16
2019-02-09T22:23:10.548Z,15.94
2019-02-09T22:28:18.713Z,13.90
2019-02-09T22:33:26.871Z,18.42
2019-02-09T22:38:35.356Z,17.55
2019-02-09T22:43:43.467Z,17.43
2019-02-09T22:48:51.447Z,17.54
2019-02-09T22:53:59.462Z,13.49
2019-02-09T22:59:07.546Z,17.33
2019-02-09T23:04:15.789Z,13.46
2019-02-09T23:09:24.546Z,16.57
2019-02-09T23:14:32.657Z,18.17
2019-02-09T23:19:40.685Z,16.16
2019-02-09T23:24:49.084Z,19.53
2019-02-09T23:29:57.121Z,18.58
2019-02-09T23:55:14.925Z,16.74
